Time;durP1;ratioP1;P1;durP2;ratioP2;P2;SDS_P1;SDS_P2;PMS_P1;PMS_P2;Temp;Humidity;BMP_temperature;BMP_pressure;BME280_temperature;BME280_humidity;BME280_pressure;Samples;Min_cycle;Max_cycle;Signal;HPM_P1;HPM_P2
2023/05/31 00:01:42;;;;;;;11.57;5.77;;;8.60;99.90;;;;;;5003035;28;20185;-54
2023/05/31 00:04:08;;;;;;;8.97;5.00;;;8.60;99.90;;;;;;5003644;28;20196;-54
2023/05/31 00:06:33;;;;;;;11.07;5.07;;;8.50;99.90;;;;;;5012418;28;20184;-54
2023/05/31 00:08:59;;;;;;;16.33;5.73;;;8.50;99.90;;;;;;5009533;28;20447;-55
2023/05/31 00:11:26;;;;;;;10.73;5.27;;;8.50;99.90;;;;;;5009439;28;20655;-54
2023/05/31 00:13:52;;;;;;;14.40;6.10;;;8.50;99.90;;;;;;5008753;28;20229;-55
2023/05/31 00:16:18;;;;;;;11.23;5.47;;;8.50;99.90;;;;;;5010321;28;20522;-56
2023/05/31 00:18:44;;;;;;;10.17;5.40;;;8.50;99.90;;;;;;4993714;28;20537;-54
2023/05/31 00:21:09;;;;;;;10.93;5.67;;;8.50;99.90;;;;;;5009727;28;20191;-55
2023/05/31 00:23:35;;;;;;;8.43;5.30;;;8.50;99.90;;;;;;5010908;28;20185;-53
2023/05/31 00:26:01;;;;;;;12.00;6.63;;;8.50;99.90;;;;;;5007998;28;20201;-55
2023/05/31 00:28:26;;;;;;;12.43;6.20;;;8.50;1.00;;;;;;5010716;28;20188;-54
2023/05/31 00:30:52;;;;;;;10.50;6.40;;;8.60;1.00;;;;;;5007336;28;20203;-54
2023/05/31 00:33:17;;;;;;;12.27;6.10;;;8.60;1.00;;;;;;5003570;28;20221;-55
2023/05/31 00:35:43;;;;;;;12.00;7.00;;;8.70;1.00;;;;;;5003028;28;20188;-55
2023/05/31 00:38:08;;;;;;;12.60;6.67;;;8.70;1.00;;;;;;5004409;28;20192;-55
2023/05/31 00:40:34;;;;;;;14.47;6.23;;;8.70;15.60;;;;;;5003487;28;20212;-55
2023/05/31 00:43:00;;;;;;;12.03;6.87;;;8.70;62.00;;;;;;5009112;28;20191;-55
2023/05/31 00:45:28;;;;;;;13.23;7.20;;;8.70;78.80;;;;;;5005726;28;20220;-58
2023/05/31 00:47:54;;;;;;;12.67;7.10;;;8.70;93.60;;;;;;5006787;28;20485;-54
2023/05/31 00:50:20;;;;;;;9.00;5.50;;;8.80;99.90;;;;;;5007784;28;20866;-54
2023/05/31 00:52:49;;;;;;;13.40;6.50;;;8.70;99.90;;;;;;5011122;28;20538;-54
2023/05/31 00:55:16;;;;;;;13.80;6.93;;;8.60;99.90;;;;;;5003803;28;20427;-54
2023/05/31 00:57:42;;;;;;;13.97;7.20;;;8.60;99.90;;;;;;5008771;28;20858;-55
2023/05/31 01:00:08;;;;;;;11.10;6.93;;;8.50;1.00;;;;;;5005966;28;20472;-54
2023/05/31 01:02:37;;;;;;;12.87;7.27;;;8.50;5.30;;;;;;5002315;28;20192;-55
2023/05/31 01:05:07;;;;;;;12.80;6.90;;;8.50;99.90;;;;;;5001745;28;20935;-55
2023/05/31 01:07:33;;;;;;;11.30;6.30;;;8.50;1.00;;;;;;5002487;28;20450;-55
2023/05/31 01:10:00;;;;;;;12.90;7.07;;;8.50;1.00;;;;;;5007014;28;20431;-54
2023/05/31 01:12:28;;;;;;;20.00;6.97;;;8.40;3.60;;;;;;5004238;28;20243;-55
2023/05/31 01:15:03;;;;;;;15.40;7.00;;;8.40;1.00;;;;;;5003171;28;20481;-55
2023/05/31 01:17:39;;;;;;;14.73;6.93;;;8.40;99.90;;;;;;5010815;28;20438;-53
2023/05/31 01:20:11;;;;;;;11.23;6.93;;;8.30;15.70;;;;;;5004125;28;20494;-54
2023/05/31 01:22:52;;;;;;;11.60;7.37;;;8.30;99.90;;;;;;5005552;28;20437;-54
2023/05/31 01:26:06;;;;;;;12.97;7.73;;;8.30;99.90;;;;;;5005337;28;20449;-54
2023/05/31 01:28:35;;;;;;;10.27;6.57;;;8.30;99.90;;;;;;5005746;28;20550;-56
2023/05/31 01:31:05;;;;;;;12.47;6.90;;;8.20;1.00;;;;;;5009641;28;20447;-55
2023/05/31 01:33:32;;;;;;;12.67;8.23;;;8.20;1.00;;;;;;5009327;28;20483;-54
2023/05/31 01:35:57;;;;;;;13.20;7.27;;;8.10;1.00;;;;;;5003912;28;20431;-54
2023/05/31 01:38:23;;;;;;;13.17;8.10;;;8.10;99.90;;;;;;5006588;28;20427;-54
2023/05/31 01:40:49;;;;;;;13.47;7.30;;;8.00;99.90;;;;;;5006500;28;20776;-54
2023/05/31 01:43:17;;;;;;;15.67;8.20;;;8.00;99.90;;;;;;5007225;28;20270;-54
2023/05/31 01:45:42;;;;;;;16.43;8.37;;;8.00;99.90;;;;;;5003189;28;20450;-54
2023/05/31 01:48:09;;;;;;;15.57;7.40;;;8.00;99.90;;;;;;5000215;28;20439;-54
2023/05/31 01:50:36;;;;;;;13.93;8.33;;;7.90;99.90;;;;;;5003355;28;20180;-54
2023/05/31 01:53:03;;;;;;;14.40;7.73;;;7.90;99.90;;;;;;5000507;28;20566;-54
2023/05/31 01:55:29;;;;;;;14.50;7.93;;;7.90;99.90;;;;;;5000547;28;20500;-55
2023/05/31 01:57:56;;;;;;;18.63;8.00;;;7.90;99.90;;;;;;5003050;28;20502;-54
2023/05/31 02:00:24;;;;;;;16.10;8.80;;;7.90;99.90;;;;;;5005641;28;20645;-54
2023/05/31 02:02:51;;;;;;;15.10;8.40;;;7.90;1.00;;;;;;5005711;28;20435;-54
2023/05/31 02:05:16;;;;;;;16.07;8.87;;;7.90;1.00;;;;;;5002896;28;20434;-54
2023/05/31 02:07:44;;;;;;;16.83;8.50;;;7.90;99.90;;;;;;5003447;28;20445;-54
2023/05/31 02:10:11;;;;;;;15.20;7.97;;;7.80;1.00;;;;;;5013338;28;20207;-53
2023/05/31 02:12:38;;;;;;;15.00;8.27;;;7.80;99.90;;;;;;5003095;28;20443;-54
2023/05/31 02:15:04;;;;;;;12.93;8.43;;;7.80;99.90;;;;;;5004864;28;20469;-54
2023/05/31 02:17:32;;;;;;;18.60;8.27;;;7.80;1.00;;;;;;5001023;28;20548;-54
2023/05/31 02:19:58;;;;;;;14.93;8.20;;;7.80;1.00;;;;;;5005977;28;20938;-54
2023/05/31 02:22:24;;;;;;;16.03;8.00;;;7.80;1.00;;;;;;5007829;28;20451;-53
2023/05/31 02:24:50;;;;;;;15.07;7.50;;;7.70;1.00;;;;;;5006678;28;20788;-54
2023/05/31 02:27:15;;;;;;;13.37;8.00;;;7.70;1.00;;;;;;5004344;28;20598;-54
2023/05/31 02:29:44;;;;;;;18.43;8.20;;;7.60;1.00;;;;;;5000606;28;20188;-54
2023/05/31 02:32:10;;;;;;;16.47;8.13;;;7.60;1.00;;;;;;5003081;28;20783;-54
2023/05/31 02:34:36;;;;;;;13.73;7.97;;;7.60;1.00;;;;;;5005612;28;20483;-54
2023/05/31 02:37:02;;;;;;;17.37;8.90;;;7.50;1.00;;;;;;5001325;28;20200;-54
2023/05/31 02:39:28;;;;;;;11.50;6.90;;;7.50;1.00;;;;;;5003530;28;20956;-53
2023/05/31 02:41:54;;;;;;;14.47;7.67;;;7.50;1.00;;;;;;5006124;28;20463;-54
2023/05/31 02:44:20;;;;;;;15.30;7.70;;;7.50;3.90;;;;;;5008208;28;20469;-54
2023/05/31 02:46:46;;;;;;;19.00;9.03;;;7.50;33.70;;;;;;5005616;28;20467;-54
2023/05/31 02:49:11;;;;;;;13.90;8.00;;;7.50;99.90;;;;;;5002121;28;20625;-54
2023/05/31 02:51:37;;;;;;;15.10;8.37;;;7.40;99.90;;;;;;5006553;28;20615;-54
2023/05/31 02:54:03;;;;;;;18.37;7.80;;;7.40;99.90;;;;;;5008399;28;20578;-54
2023/05/31 02:56:28;;;;;;;14.00;8.33;;;7.40;99.90;;;;;;5002240;28;20227;-54
2023/05/31 02:58:54;;;;;;;11.70;7.17;;;7.40;99.90;;;;;;5002381;28;20282;-55
2023/05/31 03:01:20;;;;;;;13.80;8.23;;;7.40;99.90;;;;;;4999054;28;20193;-54
2023/05/31 03:03:45;;;;;;;21.43;8.97;;;7.40;99.90;;;;;;5006454;28;20194;-54
2023/05/31 03:06:16;;;;;;;17.00;8.40;;;7.40;99.90;;;;;;4992307;28;20250;-54
2023/05/31 03:08:42;;;;;;;14.93;7.77;;;7.40;99.90;;;;;;5005576;28;20211;-54
2023/05/31 03:11:07;;;;;;;16.20;9.10;;;7.30;99.90;;;;;;4999283;28;20574;-53
2023/05/31 03:13:33;;;;;;;15.73;8.53;;;7.30;99.90;;;;;;4999273;28;20322;-54
2023/05/31 03:15:58;;;;;;;18.63;8.43;;;7.40;99.90;;;;;;5004367;28;20184;-53
2023/05/31 03:18:24;;;;;;;19.00;8.60;;;7.40;99.90;;;;;;4995642;28;20224;-53
2023/05/31 03:20:50;;;;;;;11.67;7.53;;;7.40;99.90;;;;;;5000654;28;20250;-54
2023/05/31 03:23:15;;;;;;;14.80;7.10;;;7.30;99.90;;;;;;4999870;28;20203;-54
2023/05/31 03:25:41;;;;;;;11.97;7.27;;;7.30;99.90;;;;;;4997609;28;20663;-53
2023/05/31 03:28:06;;;;;;;13.70;8.40;;;7.30;99.90;;;;;;5005916;28;20191;-54
2023/05/31 03:30:32;;;;;;;16.63;7.03;;;7.30;99.90;;;;;;5003532;28;20658;-54
2023/05/31 03:32:58;;;;;;;17.00;8.60;;;7.30;99.90;;;;;;5001115;28;20180;-54
2023/05/31 03:35:23;;;;;;;17.20;8.10;;;7.30;99.90;;;;;;4999269;28;20229;-54
2023/05/31 03:37:49;;;;;;;20.50;8.20;;;7.40;99.90;;;;;;5007562;28;20647;-54
2023/05/31 03:40:14;;;;;;;20.10;8.00;;;7.40;99.90;;;;;;4998428;28;20188;-54
2023/05/31 03:42:40;;;;;;;14.70;7.70;;;7.40;99.90;;;;;;5004278;28;20184;-54
2023/05/31 03:45:06;;;;;;;14.20;9.00;;;7.40;99.90;;;;;;5002613;28;20193;-53
2023/05/31 03:47:31;;;;;;;17.23;9.33;;;7.50;99.90;;;;;;5007919;28;20682;-53
2023/05/31 03:49:57;;;;;;;14.80;8.30;;;7.50;99.90;;;;;;5007187;28;20444;-53
2023/05/31 03:52:23;;;;;;;19.07;9.80;;;7.50;99.90;;;;;;5004645;28;20704;-54
2023/05/31 03:54:49;;;;;;;18.03;8.40;;;7.50;99.90;;;;;;4997156;28;20204;-54
2023/05/31 03:57:15;;;;;;;14.00;8.37;;;7.60;99.90;;;;;;5004337;28;20244;-54
2023/05/31 03:59:40;;;;;;;13.70;8.77;;;7.60;99.90;;;;;;5005615;28;20434;-54
2023/05/31 04:02:06;;;;;;;16.27;8.57;;;7.60;99.90;;;;;;5005497;28;20435;-54
2023/05/31 04:04:31;;;;;;;18.17;9.57;;;7.70;99.90;;;;;;5003075;28;20195;-53
2023/05/31 04:06:58;;;;;;;14.33;8.50;;;7.80;99.90;;;;;;5006269;28;20195;-54
2023/05/31 04:09:23;;;;;;;16.00;8.43;;;7.80;99.90;;;;;;5012740;28;20535;-54
2023/05/31 04:11:49;;;;;;;20.20;8.43;;;7.90;99.90;;;;;;5004768;28;20454;-53
2023/05/31 04:14:15;;;;;;;17.33;8.63;;;7.90;99.90;;;;;;5003382;28;20622;-55
2023/05/31 04:16:40;;;;;;;13.20;7.67;;;8.00;99.90;;;;;;5005311;28;20541;-54
2023/05/31 04:19:06;;;;;;;12.53;7.57;;;8.00;99.90;;;;;;4997670;28;20555;-54
2023/05/31 04:21:32;;;;;;;14.73;8.10;;;8.10;99.90;;;;;;4998855;28;20676;-53
2023/05/31 04:23:58;;;;;;;14.90;9.20;;;8.20;99.90;;;;;;5006252;28;20259;-54
2023/05/31 04:26:24;;;;;;;19.87;9.40;;;8.30;99.90;;;;;;5003613;28;20478;-54
2023/05/31 04:28:54;;;;;;;19.40;9.33;;;8.40;99.90;;;;;;5002302;28;20192;-55
2023/05/31 04:31:24;;;;;;;20.60;9.43;;;8.50;99.90;;;;;;5002089;28;20455;-54
2023/05/31 04:33:53;;;;;;;14.80;8.63;;;8.60;99.90;;;;;;5010279;28;20557;-54
2023/05/31 04:36:20;;;;;;;16.13;9.47;;;8.70;99.90;;;;;;5003871;28;20804;-54
2023/05/31 04:38:47;;;;;;;16.87;8.93;;;8.80;99.90;;;;;;5004380;28;20971;-54
2023/05/31 04:41:14;;;;;;;22.10;9.20;;;9.00;99.90;;;;;;5004695;28;20443;-54
2023/05/31 04:43:40;;;;;;;12.47;8.50;;;9.20;99.90;;;;;;5006175;28;20982;-54
2023/05/31 04:46:05;;;;;;;14.30;8.20;;;9.30;99.90;;;;;;5003422;28;20567;-55
2023/05/31 04:48:31;;;;;;;14.13;9.50;;;9.50;99.90;;;;;;5005751;28;20190;-54
2023/05/31 04:50:58;;;;;;;16.20;8.70;;;9.60;99.90;;;;;;5007172;28;21032;-54
2023/05/31 04:53:24;;;;;;;18.60;8.33;;;9.80;99.90;;;;;;5003730;28;20483;-54
2023/05/31 04:55:51;;;;;;;16.17;8.60;;;10.00;99.90;;;;;;5004756;28;20616;-54
2023/05/31 04:58:19;;;;;;;14.50;8.63;;;10.10;99.90;;;;;;5001886;28;20679;-54
2023/05/31 05:00:45;;;;;;;19.10;8.53;;;10.40;99.90;;;;;;5007011;28;20443;-54
2023/05/31 05:03:11;;;;;;;14.17;8.53;;;10.60;99.90;;;;;;5002947;28;20484;-54
2023/05/31 05:05:37;;;;;;;15.80;8.43;;;10.80;99.90;;;;;;5007557;28;20446;-54
2023/05/31 05:08:03;;;;;;;19.37;8.63;;;11.00;71.00;;;;;;5003795;28;20467;-55
2023/05/31 05:10:29;;;;;;;15.73;9.00;;;11.20;1.00;;;;;;5002496;28;20488;-54
2023/05/31 05:12:54;;;;;;;20.27;8.57;;;11.40;1.00;;;;;;5004767;28;20514;-54
2023/05/31 05:15:20;;;;;;;10.93;7.60;;;11.60;71.80;;;;;;5008330;28;20291;-55
2023/05/31 05:17:46;;;;;;;13.93;7.70;;;11.70;99.90;;;;;;5003994;28;20549;-55
2023/05/31 05:20:12;;;;;;;20.73;8.60;;;11.90;1.00;;;;;;5007457;28;20679;-55
2023/05/31 05:22:38;;;;;;;15.00;7.43;;;12.10;99.90;;;;;;5008575;28;20196;-54
2023/05/31 05:25:04;;;;;;;14.27;7.30;;;12.30;99.90;;;;;;5003767;28;20438;-54
2023/05/31 05:27:29;;;;;;;13.73;8.20;;;12.40;99.90;;;;;;5003581;28;20281;-54
2023/05/31 05:29:55;;;;;;;14.10;7.17;;;12.60;99.90;;;;;;5006603;28;21042;-54
2023/05/31 05:32:21;;;;;;;14.00;7.23;;;12.80;1.00;;;;;;4998317;28;20184;-54
2023/05/31 05:34:47;;;;;;;11.73;6.73;;;12.90;1.00;;;;;;5004334;28;20208;-54
2023/05/31 05:37:12;;;;;;;15.70;7.93;;;13.20;1.00;;;;;;5004849;28;20247;-54
2023/05/31 05:39:38;;;;;;;18.90;7.80;;;13.40;1.00;;;;;;5006786;28;20557;-54
2023/05/31 05:42:04;;;;;;;14.40;7.63;;;13.60;99.90;;;;;;5003256;28;20268;-54
2023/05/31 05:44:29;;;;;;;12.80;6.80;;;13.90;99.90;;;;;;5004279;28;20643;-55
2023/05/31 05:46:56;;;;;;;9.70;6.80;;;14.10;51.60;;;;;;5001714;28;20545;-54
2023/05/31 05:49:21;;;;;;;17.73;6.70;;;14.40;28.50;;;;;;5001214;28;20280;-56
2023/05/31 05:51:47;;;;;;;10.43;6.47;;;14.60;1.00;;;;;;5004711;28;20519;-55
2023/05/31 05:54:13;;;;;;;10.67;7.17;;;14.80;1.00;;;;;;4997962;28;20225;-56
2023/05/31 05:56:38;;;;;;;12.60;6.67;;;15.00;1.00;;;;;;5009356;28;20232;-55
2023/05/31 05:59:04;;;;;;;13.73;7.10;;;15.30;1.00;;;;;;5000307;28;20181;-55
2023/05/31 06:01:30;;;;;;;18.90;6.33;;;15.50;1.00;;;;;;5002575;28;20192;-56
2023/05/31 06:03:56;;;;;;;11.70;6.30;;;15.80;1.00;;;;;;5001344;28;20440;-55
2023/05/31 06:06:21;;;;;;;12.30;6.90;;;15.90;1.00;;;;;;5000265;28;20664;-56
2023/05/31 06:08:47;;;;;;;9.47;5.80;;;16.10;1.00;;;;;;5005512;28;20243;-55
2023/05/31 06:11:15;;;;;;;13.03;5.60;;;16.40;1.00;;;;;;5005900;28;20630;-56
2023/05/31 06:13:42;;;;;;;9.57;4.40;;;16.70;1.00;;;;;;5004479;28;20223;-56
2023/05/31 06:16:08;;;;;;;11.63;5.13;;;17.10;1.00;;;;;;5006983;28;20939;-57
2023/05/31 06:18:34;;;;;;;9.63;4.13;;;17.30;1.00;;;;;;5001018;28;20225;-55
2023/05/31 06:21:00;;;;;;;8.87;4.57;;;17.40;1.00;;;;;;4983984;28;21851;-58
2023/05/31 06:23:26;;;;;;;12.37;4.93;;;17.60;1.00;;;;;;4986202;28;20496;-58
2023/05/31 06:25:51;;;;;;;6.30;3.97;;;17.70;1.00;;;;;;5004710;28;20190;-58
2023/05/31 06:28:17;;;;;;;5.37;3.83;;;17.80;1.00;;;;;;5008518;28;20194;-55
2023/05/31 06:30:43;;;;;;;10.20;4.10;;;17.90;1.00;;;;;;5005767;28;20187;-57
2023/05/31 06:33:08;;;;;;;7.47;4.13;;;18.10;1.00;;;;;;5002837;28;20192;-57
2023/05/31 06:35:34;;;;;;;6.83;3.90;;;18.40;1.00;;;;;;5006617;28;20193;-59
2023/05/31 06:37:59;;;;;;;6.60;3.40;;;18.70;1.00;;;;;;5005346;28;20282;-56
2023/05/31 06:40:25;;;;;;;14.53;5.10;;;19.00;1.00;;;;;;5001496;28;20183;-56
2023/05/31 06:42:51;;;;;;;11.47;4.70;;;19.20;1.00;;;;;;5005441;28;20651;-55
2023/05/31 06:45:16;;;;;;;9.03;3.97;;;19.40;1.00;;;;;;4999872;28;20588;-56
2023/05/31 06:47:42;;;;;;;9.40;4.47;;;19.70;1.00;;;;;;5010143;28;20188;-55
2023/05/31 06:50:10;;;;;;;11.80;3.87;;;19.90;1.00;;;;;;5001616;28;20521;-56
2023/05/31 06:52:36;;;;;;;8.10;4.43;;;20.10;1.00;;;;;;5003506;28;20195;-58
2023/05/31 06:55:01;;;;;;;7.03;4.57;;;20.10;1.00;;;;;;5002042;28;20836;-59
2023/05/31 06:57:27;;;;;;;12.27;3.87;;;20.30;1.00;;;;;;5001247;28;20231;-58
2023/05/31 06:59:54;;;;;;;6.20;3.00;;;20.40;1.00;;;;;;5004983;28;20271;-57
2023/05/31 07:02:20;;;;;;;9.73;3.47;;;20.60;1.00;;;;;;5002996;28;20222;-57
2023/05/31 07:04:45;;;;;;;10.37;5.80;;;20.70;1.00;;;;;;5002602;28;20489;-57
2023/05/31 07:07:11;;;;;;;8.93;3.40;;;20.90;1.00;;;;;;5003746;28;20180;-57
2023/05/31 07:09:36;;;;;;;8.43;3.30;;;20.90;1.00;;;;;;5008809;28;20249;-57
2023/05/31 07:12:02;;;;;;;14.20;3.90;;;20.90;1.00;;;;;;5005788;28;20647;-57
2023/05/31 07:14:28;;;;;;;15.67;4.03;;;20.90;1.00;;;;;;5004371;28;20220;-56
2023/05/31 07:16:54;;;;;;;10.67;3.80;;;21.20;99.90;;;;;;5005196;28;20191;-56
2023/05/31 07:19:20;;;;;;;11.60;4.20;;;21.30;99.90;;;;;;5005056;28;20432;-57
2023/05/31 07:21:46;;;;;;;8.10;4.23;;;21.60;99.90;;;;;;5006521;28;20541;-57
2023/05/31 07:24:11;;;;;;;7.77;3.47;;;21.90;99.90;;;;;;5003769;28;20446;-57
2023/05/31 07:26:37;;;;;;;12.40;3.73;;;22.10;99.90;;;;;;5002717;28;20251;-57
2023/05/31 07:29:02;;;;;;;8.57;3.20;;;22.40;99.90;;;;;;5000008;28;20277;-58
2023/05/31 07:31:28;;;;;;;9.80;3.20;;;22.50;99.90;;;;;;4999078;28;20427;-58
2023/05/31 07:33:55;;;;;;;9.70;2.80;;;22.70;99.90;;;;;;5000740;28;20239;-58
2023/05/31 07:36:24;;;;;;;12.27;3.33;;;22.70;99.90;;;;;;5001643;28;20521;-58
2023/05/31 07:38:50;;;;;;;10.87;4.47;;;22.50;99.90;;;;;;5001437;28;20445;-58
2023/05/31 07:41:16;;;;;;;5.53;2.80;;;22.40;99.90;;;;;;5002677;28;20465;-59
2023/05/31 07:43:44;;;;;;;2.30;2.07;;;22.50;99.90;;;;;;5002601;28;20650;-59
2023/05/31 07:46:10;;;;;;;4.70;2.50;;;22.60;99.90;;;;;;5004476;28;20200;-58
2023/05/31 07:48:35;;;;;;;7.22;2.80;;;22.50;99.90;;;;;;5005036;28;20927;-58
2023/05/31 07:51:01;;;;;;;4.03;2.40;;;22.50;99.90;;;;;;5004694;28;20271;-58
2023/05/31 07:53:26;;;;;;;7.43;2.47;;;22.60;99.90;;;;;;5001566;28;20844;-58
2023/05/31 07:55:52;;;;;;;9.30;3.10;;;22.50;99.90;;;;;;5003221;28;20233;-58
2023/05/31 07:58:18;;;;;;;6.67;2.60;;;22.40;99.90;;;;;;5004580;28;20772;-55
2023/05/31 08:00:43;;;;;;;7.43;2.47;;;22.60;99.90;;;;;;4999460;28;20962;-55
2023/05/31 08:03:09;;;;;;;9.57;3.03;;;22.80;99.90;;;;;;5002584;28;20188;-56
2023/05/31 08:05:35;;;;;;;8.10;3.00;;;23.10;99.90;;;;;;5001893;28;20279;-56
2023/05/31 08:08:00;;;;;;;7.67;2.97;;;23.30;99.90;;;;;;5001733;28;20596;-57
2023/05/31 08:10:26;;;;;;;6.60;3.07;;;23.50;99.90;;;;;;4999484;28;20438;-56
2023/05/31 08:12:52;;;;;;;6.93;2.70;;;23.60;99.90;;;;;;5004696;28;20535;-57
2023/05/31 08:15:17;;;;;;;7.00;3.30;;;23.80;99.90;;;;;;5001573;28;20667;-57
2023/05/31 08:17:43;;;;;;;8.83;2.43;;;23.80;99.90;;;;;;5005961;28;20198;-58
2023/05/31 08:20:10;;;;;;;7.27;3.03;;;23.90;99.90;;;;;;5010315;28;20193;-57
2023/05/31 08:22:36;;;;;;;6.13;2.43;;;23.80;99.90;;;;;;5004530;28;20194;-58
2023/05/31 08:25:02;;;;;;;4.73;2.83;;;23.60;99.90;;;;;;5006922;28;20886;-56
2023/05/31 08:27:28;;;;;;;9.70;2.80;;;23.80;99.90;;;;;;5009630;28;20243;-59
2023/05/31 08:29:53;;;;;;;5.33;2.23;;;23.90;99.90;;;;;;5004215;28;20511;-59
2023/05/31 08:32:20;;;;;;;4.70;2.77;;;24.30;99.90;;;;;;5008420;28;20588;-57
2023/05/31 08:34:46;;;;;;;6.43;2.80;;;24.40;99.90;;;;;;5020650;28;20218;-57
2023/05/31 08:37:12;;;;;;;4.83;3.00;;;24.60;99.90;;;;;;5005220;28;20439;-52
2023/05/31 08:39:38;;;;;;;3.10;2.20;;;24.40;99.90;;;;;;5002012;28;20219;-56
2023/05/31 08:42:06;;;;;;;4.90;2.33;;;24.40;99.90;;;;;;5006241;28;20783;-57
2023/05/31 08:44:32;;;;;;;6.00;2.70;;;24.50;99.90;;;;;;5004409;28;20187;-57
2023/05/31 08:47:25;;;;;;;4.53;2.50;;;24.50;99.90;;;;;;5004736;28;20436;-56
2023/05/31 08:49:52;;;;;;;4.72;2.50;;;24.50;99.90;;;;;;5004247;28;20532;-54
2023/05/31 08:52:20;;;;;;;5.63;2.50;;;24.60;99.90;;;;;;5002206;28;20195;-58
2023/05/31 08:54:47;;;;;;;3.63;2.43;;;24.50;99.90;;;;;;5004722;28;20856;-56
2023/05/31 08:57:13;;;;;;;6.57;2.87;;;24.10;99.90;;;;;;5006639;28;20485;-53
2023/05/31 08:59:39;;;;;;;7.43;3.10;;;24.00;99.90;;;;;;5002740;28;20847;-54
2023/05/31 09:02:07;;;;;;;3.63;2.53;;;24.00;99.90;;;;;;5005222;28;20496;-57
2023/05/31 09:04:33;;;;;;;5.57;3.13;;;24.10;99.90;;;;;;5007149;28;20253;-59
2023/05/31 09:07:00;;;;;;;6.83;2.50;;;24.00;99.90;;;;;;5000472;28;20946;-59
2023/05/31 09:09:25;;;;;;;4.73;2.90;;;24.40;99.90;;;;;;5004918;28;20191;-58
2023/05/31 09:11:51;;;;;;;7.20;4.07;;;24.90;99.90;;;;;;5005211;28;20448;-59
2023/05/31 09:14:17;;;;;;;7.17;3.23;;;25.40;99.90;;;;;;5005559;28;20761;-58
2023/05/31 09:16:43;;;;;;;7.73;3.57;;;25.60;99.90;;;;;;5004757;28;20192;-59
2023/05/31 09:19:08;;;;;;;6.53;2.27;;;25.80;99.90;;;;;;5000596;28;21630;-58
2023/05/31 09:21:41;;;;;;;4.80;2.13;;;25.50;99.90;;;;;;5006664;28;20443;-60
2023/05/31 09:24:07;;;;;;;6.50;2.50;;;25.30;99.90;;;;;;4999787;28;20283;-59
2023/05/31 09:26:33;;;;;;;13.27;3.13;;;25.30;99.90;;;;;;5004391;28;20488;-57
2023/05/31 09:28:59;;;;;;;12.17;3.17;;;25.30;99.90;;;;;;5004752;28;20951;-59
2023/05/31 09:31:25;;;;;;;6.17;3.20;;;25.40;99.90;;;;;;5003566;28;20943;-61
2023/05/31 09:33:52;;;;;;;11.80;3.03;;;25.70;99.90;;;;;;5010028;28;20478;-61
2023/05/31 09:36:28;;;;;;;6.20;2.73;;;25.60;99.90;;;;;;5007522;28;20477;-59
2023/05/31 09:39:04;;;;;;;7.03;2.57;;;25.60;99.90;;;;;;5005019;28;20437;-60
2023/05/31 09:41:31;;;;;;;8.03;2.50;;;25.60;99.90;;;;;;5004965;28;20556;-60
2023/05/31 09:43:57;;;;;;;3.47;2.17;;;25.80;99.90;;;;;;5010156;28;20523;-60
2023/05/31 09:46:24;;;;;;;6.10;2.83;;;25.90;99.90;;;;;;5002486;28;20557;-60
2023/05/31 09:49:00;;;;;;;4.90;2.43;;;25.90;99.90;;;;;;5007323;28;20184;-60
2023/05/31 09:51:27;;;;;;;6.03;2.67;;;26.20;99.90;;;;;;5001017;28;20435;-62
2023/05/31 09:53:55;;;;;;;8.43;2.20;;;26.60;99.90;;;;;;5002962;28;20717;-58
2023/05/31 09:56:22;;;;;;;7.75;2.47;;;26.60;99.90;;;;;;5007689;28;20932;-57
2023/05/31 09:58:49;;;;;;;7.10;2.80;;;26.70;99.90;;;;;;5006687;28;20515;-58
2023/05/31 10:01:15;;;;;;;10.40;2.27;;;26.50;99.90;;;;;;5006198;28;20799;-58
2023/05/31 10:03:46;;;;;;;5.60;2.50;;;26.70;99.90;;;;;;5000781;28;20984;-58
2023/05/31 10:06:13;;;;;;;7.53;2.63;;;26.60;99.90;;;;;;5000843;28;20482;-57
2023/05/31 10:08:38;;;;;;;8.03;2.60;;;26.50;99.90;;;;;;5002508;28;20467;-54
2023/05/31 10:11:04;;;;;;;5.20;2.50;;;26.40;99.90;;;;;;5004737;28;20989;-58
2023/05/31 10:13:31;;;;;;;4.20;2.30;;;26.50;99.90;;;;;;5003473;28;20569;-57
2023/05/31 10:16:03;;;;;;;7.00;2.73;;;26.80;99.90;;;;;;5004343;28;20215;-58
2023/05/31 10:18:36;;;;;;;4.73;2.53;;;26.80;99.90;;;;;;5003448;28;20505;-57
2023/05/31 10:21:34;;;;;;;6.27;2.60;;;26.80;99.90;;;;;;5007665;28;20444;-58
2023/05/31 10:24:06;;;;;;;4.60;2.50;;;26.90;99.90;;;;;;5002375;28;20954;-58
2023/05/31 10:26:44;;;;;;;8.83;3.60;;;27.40;99.90;;;;;;5002961;28;20517;-57
2023/05/31 10:29:30;;;;;;;7.63;3.47;;;27.40;99.90;;;;;;5001709;28;20438;-57
2023/05/31 10:32:18;;;;;;;6.30;2.13;;;27.40;99.90;;;;;;4999726;28;20989;-57
2023/05/31 10:34:45;;;;;;;6.15;2.30;;;27.70;99.90;;;;;;5004744;28;20449;-57
2023/05/31 10:37:12;;;;;;;6.93;3.00;;;28.30;99.90;;;;;;5001658;28;20584;-57
2023/05/31 10:40:05;;;;;;;12.83;2.67;;;28.80;99.90;;;;;;5006623;28;20449;-59
2023/05/31 10:43:00;;;;;;;5.90;2.43;;;28.80;99.90;;;;;;4999727;28;20787;-57
2023/05/31 10:45:48;;;;;;;4.73;2.50;;;28.60;99.90;;;;;;5000079;28;20447;-58
2023/05/31 10:48:26;;;;;;;5.13;2.20;;;28.60;99.90;;;;;;5001216;28;20450;-57
2023/05/31 10:50:56;;;;;;;4.60;2.30;;;28.80;99.90;;;;;;5004701;28;20763;-57
2023/05/31 10:53:27;;;;;;;6.03;2.53;;;29.20;99.90;;;;;;5004020;28;20463;-57
2023/05/31 10:55:52;;;;;;;3.93;2.53;;;28.90;99.90;;;;;;4999891;28;20996;-57
2023/05/31 10:58:35;;;;;;;6.13;2.30;;;28.70;99.90;;;;;;5007455;28;20436;-57
2023/05/31 11:01:05;;;;;;;6.43;2.70;;;28.50;99.90;;;;;;5001470;28;20668;-58
2023/05/31 11:03:34;;;;;;;6.37;2.77;;;28.70;99.90;;;;;;4997897;28;20939;-59
2023/05/31 11:06:03;;;;;;;13.23;2.70;;;28.50;99.90;;;;;;4995633;28;20459;-59
2023/05/31 11:08:30;;;;;;;4.73;3.17;;;28.90;99.90;;;;;;4998983;28;20447;-58
2023/05/31 11:11:40;;;;;;;12.43;5.27;;;29.60;99.90;;;;;;5003546;28;20453;-58
2023/05/31 11:14:25;;;;;;;5.60;3.00;;;29.80;99.90;;;;;;4994466;28;20511;-57
2023/05/31 11:17:01;;;;;;;5.77;2.60;;;29.70;99.90;;;;;;4998443;28;20447;-61
2023/05/31 11:19:29;;;;;;;4.23;2.40;;;29.50;99.90;;;;;;5006016;28;20555;-60
2023/05/31 11:21:57;;;;;;;3.63;2.63;;;29.30;99.90;;;;;;5000580;28;20448;-58
2023/05/31 11:24:48;;;;;;;6.70;2.67;;;29.60;99.90;;;;;;4999994;28;20448;-58
2023/05/31 11:27:14;;;;;;;4.87;2.27;;;29.60;99.90;;;;;;5003525;28;20444;-58
2023/05/31 11:29:51;;;;;;;8.40;2.30;;;29.60;99.90;;;;;;5005053;28;20448;-57
2023/05/31 11:32:40;;;;;;;8.40;2.40;;;29.60;99.90;;;;;;4997441;28;20443;-58
2023/05/31 11:35:14;;;;;;;7.77;2.57;;;28.80;99.90;;;;;;4972051;28;20963;-57
2023/05/31 11:37:41;;;;;;;7.40;1.97;;;29.10;99.90;;;;;;4999692;28;20443;-57
2023/05/31 11:40:08;;;;;;;6.60;2.37;;;29.50;99.90;;;;;;5002889;28;20448;-58
2023/05/31 11:42:36;;;;;;;4.50;2.30;;;29.60;99.90;;;;;;4993008;28;20451;-57
2023/05/31 11:45:13;;;;;;;5.43;2.43;;;29.40;99.90;;;;;;5005168;28;20435;-58
2023/05/31 11:47:51;;;;;;;5.77;3.20;;;29.10;99.90;;;;;;5006563;28;20447;-58
2023/05/31 11:50:17;;;;;;;6.70;2.80;;;29.00;99.90;;;;;;5005741;28;20475;-56
2023/05/31 11:52:43;;;;;;;5.37;2.13;;;29.00;99.90;;;;;;5009931;28;20488;-56
2023/05/31 11:55:10;;;;;;;7.77;3.70;;;29.20;99.90;;;;;;5004000;28;20217;-57
2023/05/31 11:57:46;;;;;;;7.03;2.63;;;29.40;99.90;;;;;;5004380;28;20442;-61
2023/05/31 12:00:15;;;;;;;8.18;2.60;;;29.60;99.90;;;;;;5005446;28;20451;-59
2023/05/31 12:02:46;;;;;;;6.73;2.93;;;29.30;99.90;;;;;;4991217;28;20201;-59
2023/05/31 12:05:13;;;;;;;6.57;2.80;;;28.70;99.90;;;;;;5001261;28;20807;-57
2023/05/31 12:07:39;;;;;;;5.70;2.60;;;28.80;99.90;;;;;;5009807;28;20461;-50
2023/05/31 12:10:05;;;;;;;4.30;2.63;;;28.80;99.90;;;;;;5005978;28;20242;-50
2023/05/31 12:12:32;;;;;;;5.27;2.50;;;29.10;99.90;;;;;;5004667;28;20507;-51
2023/05/31 12:15:01;;;;;;;4.13;2.30;;;29.00;99.90;;;;;;5009601;28;20480;-51
2023/05/31 12:17:33;;;;;;;5.30;3.30;;;29.20;99.90;;;;;;5004467;28;20438;-50
2023/05/31 12:19:59;;;;;;;7.53;2.53;;;29.60;99.90;;;;;;5004331;28;21801;-51
2023/05/31 12:22:26;;;;;;;6.90;3.37;;;29.50;99.90;;;;;;5008633;28;20788;-50
2023/05/31 12:24:55;;;;;;;4.03;2.67;;;29.70;99.90;;;;;;5007578;28;21207;-50
2023/05/31 12:27:26;;;;;;;8.07;3.20;;;28.80;99.90;;;;;;4987323;28;20548;-51
2023/05/31 12:29:56;;;;;;;5.70;2.80;;;28.50;99.90;;;;;;5004094;28;20481;-50
2023/05/31 12:32:27;;;;;;;5.47;3.20;;;29.00;99.90;;;;;;5001653;28;20947;-50
2023/05/31 12:34:53;;;;;;;4.83;2.83;;;28.90;99.90;;;;;;5001275;28;20470;-49
2023/05/31 12:37:18;;;;;;;7.30;3.13;;;29.10;99.90;;;;;;5002431;28;20444;-50
2023/05/31 12:39:45;;;;;;;5.83;3.20;;;29.00;99.90;;;;;;5007783;28;20979;-49
2023/05/31 12:42:11;;;;;;;7.83;3.13;;;28.70;99.90;;;;;;5006658;28;20199;-51
2023/05/31 12:44:38;;;;;;;5.53;2.57;;;28.70;99.90;;;;;;5002491;28;20443;-50
2023/05/31 12:47:07;;;;;;;5.80;2.90;;;28.70;99.90;;;;;;5004879;28;20188;-50
2023/05/31 12:49:35;;;;;;;9.90;2.57;;;29.10;99.90;;;;;;5001328;28;20451;-51
2023/05/31 12:52:06;;;;;;;4.17;2.27;;;29.10;99.90;;;;;;5005802;28;20430;-51